Strona główna
METAR-TAF:

METAR-TAF

Lotnisko :

Somerset Airport

Somerville, New Jersey, Stany Zjednoczone

Szerokość geograficzna: 40-37-26N, Długość geograficzna: 074-40-10W, wysokość: 32 m

Aktualna obserwacja pogody

Raport powstał 48 minut temu, godzina 16:53 UTC
Wiatr 5 kt od południowo-południowy zachód
Temperatura 27°C
Wilgotność 48%
Ciśnienie 1012 hPa
Widzialność: 16.1 km
Rozproszone chmury na wysokości 6000 ft

METAR: KSMQ 241653Z AUTO 20005KT 10SM SCT060 27/15 A2987 RMK AO2 SLP113 T02720150

czas: 13:41 (17:41 UTC)


TAF: brakujący

Obserwacja i prognoza pogody dla ponad 4000 lotnisk (raport METAR i TAF).

Dostępne stacje oznaczono żółtymi i czerwonymi punktami na mapie.

Najedź kursorem aby zobaczyć nazwę stacji.

Kliknij aby zobaczyć obserwacje i prognozy pogody.

Aby zmienić mapę: kliknij na zielony przycisk z czarnym krzyżykiem, aby powiększyć; na zielony przycisk z myślnikiem, aby pomniejszyć; na zielone strzałki, aby przejść do map sąsiednich.


METAR-TAF: